sensor_id;sensor_type;location;lat;lon;timestamp;pressure;altitude;pressure_sealevel;temperature;humidity
1207;BME280;593;53.184;8.216;2023-12-04T00:00:32;101262.28;;;2.90;100.00
1207;BME280;593;53.184;8.216;2023-12-04T00:02:57;101238.56;;;2.81;100.00
1207;BME280;593;53.184;8.216;2023-12-04T00:05:23;101258.78;;;2.90;100.00
1207;BME280;593;53.184;8.216;2023-12-04T00:07:48;101256.69;;;2.92;100.00
1207;BME280;593;53.184;8.216;2023-12-04T00:10:13;101240.00;;;2.83;99.97
1207;BME280;593;53.184;8.216;2023-12-04T00:12:39;101248.03;;;2.90;99.86
1207;BME280;593;53.184;8.216;2023-12-04T00:15:05;101235.69;;;2.82;100.00
1207;BME280;593;53.184;8.216;2023-12-04T00:17:30;101237.78;;;2.80;99.94
1207;BME280;593;53.184;8.216;2023-12-04T00:19:55;101225.97;;;2.81;99.58
1207;BME280;593;53.184;8.216;2023-12-04T00:22:21;101224.28;;;2.87;99.69
1207;BME280;593;53.184;8.216;2023-12-04T00:24:46;101212.56;;;2.81;99.49
1207;BME280;593;53.184;8.216;2023-12-04T00:27:12;101209.25;;;2.79;99.12
1207;BME280;593;53.184;8.216;2023-12-04T00:29:37;101206.34;;;2.81;99.01
1207;BME280;593;53.184;8.216;2023-12-04T00:32:02;101196.06;;;2.78;99.11
1207;BME280;593;53.184;8.216;2023-12-04T00:34:28;101213.53;;;2.87;99.27
1207;BME280;593;53.184;8.216;2023-12-04T00:36:53;101208.00;;;2.82;99.18
1207;BME280;593;53.184;8.216;2023-12-04T00:39:19;101209.88;;;2.81;99.89
1207;BME280;593;53.184;8.216;2023-12-04T00:41:44;101194.56;;;2.82;99.60
1207;BME280;593;53.184;8.216;2023-12-04T00:44:09;101198.28;;;2.81;99.71
1207;BME280;593;53.184;8.216;2023-12-04T00:46:35;101193.97;;;2.80;99.74
1207;BME280;593;53.184;8.216;2023-12-04T00:49:00;101195.84;;;2.79;99.80
1207;BME280;593;53.184;8.216;2023-12-04T00:51:25;101186.59;;;2.75;99.96
1207;BME280;593;53.184;8.216;2023-12-04T00:53:51;101190.69;;;2.78;99.66
1207;BME280;593;53.184;8.216;2023-12-04T00:56:16;101186.19;;;2.72;100.00
1207;BME280;593;53.184;8.216;2023-12-04T00:58:43;101181.41;;;2.74;100.00
1207;BME280;593;53.184;8.216;2023-12-04T01:01:09;101175.88;;;2.69;100.00
1207;BME280;593;53.184;8.216;2023-12-04T01:03:34;101186.59;;;2.75;100.00
1207;BME280;593;53.184;8.216;2023-12-04T01:05:59;101187.38;;;2.76;100.00
1207;BME280;593;53.184;8.216;2023-12-04T01:08:25;101182.84;;;2.76;100.00
1207;BME280;593;53.184;8.216;2023-12-04T01:10:50;101170.84;;;2.79;100.00
1207;BME280;593;53.184;8.216;2023-12-04T01:13:16;101170.84;;;2.79;100.00
1207;BME280;593;53.184;8.216;2023-12-04T01:15:41;101161.59;;;2.75;100.00
1207;BME280;593;53.184;8.216;2023-12-04T01:18:07;101165.69;;;2.77;100.00
1207;BME280;593;53.184;8.216;2023-12-04T01:20:33;101157.84;;;2.76;100.00
1207;BME280;593;53.184;8.216;2023-12-04T01:22:58;101156.38;;;2.80;100.00
1207;BME280;593;53.184;8.216;2023-12-04T01:25:23;101176.22;;;2.79;100.00
1207;BME280;593;53.184;8.216;2023-12-04T01:27:49;101161.94;;;2.78;100.00
1207;BME280;593;53.184;8.216;2023-12-04T01:30:14;101170.41;;;2.82;100.00
1207;BME280;593;53.184;8.216;2023-12-04T01:32:40;101127.81;;;2.60;100.00
1207;BME280;593;53.184;8.216;2023-12-04T01:35:05;101160.50;;;2.82;100.00
1207;BME280;593;53.184;8.216;2023-12-04T01:37:31;101154.28;;;2.82;100.00
1207;BME280;593;53.184;8.216;2023-12-04T01:39:57;101145.63;;;2.80;100.00
1207;BME280;593;53.184;8.216;2023-12-04T01:42:22;101151.00;;;2.80;100.00
1207;BME280;593;53.184;8.216;2023-12-04T01:44:47;101145.63;;;2.80;100.00
1207;BME280;593;53.184;8.216;2023-12-04T01:47:13;101146.47;;;2.80;100.00
1207;BME280;593;53.184;8.216;2023-12-04T01:49:39;101151.00;;;2.80;100.00
1207;BME280;593;53.184;8.216;2023-12-04T01:52:05;101140.03;;;2.81;100.00
1207;BME280;593;53.184;8.216;2023-12-04T01:54:31;101127.44;;;2.82;100.00
1207;BME280;593;53.184;8.216;2023-12-04T01:56:57;101133.84;;;2.81;100.00
1207;BME280;593;53.184;8.216;2023-12-04T01:59:25;101127.03;;;2.78;100.00
1207;BME280;593;53.184;8.216;2023-12-04T02:01:51;101131.78;;;2.83;100.00
1207;BME280;593;53.184;8.216;2023-12-04T02:04:17;101128.03;;;2.84;100.00
1207;BME280;593;53.184;8.216;2023-12-04T02:06:43;101125.78;;;2.81;100.00
1207;BME280;593;53.184;8.216;2023-12-04T02:09:08;101123.31;;;2.79;100.00
1207;BME280;593;53.184;8.216;2023-12-04T02:11:37;101118.56;;;2.81;100.00
1207;BME280;593;53.184;8.216;2023-12-04T02:14:04;101118.56;;;2.81;100.00
1207;BME280;593;53.184;8.216;2023-12-04T02:16:30;101121.03;;;2.83;100.00
1207;BME280;593;53.184;8.216;2023-12-04T02:18:58;101114.25;;;2.80;100.00
1207;BME280;593;53.184;8.216;2023-12-04T02:21:24;101115.66;;;2.83;100.00
1207;BME280;593;53.184;8.216;2023-12-04T02:23:52;101109.81;;;2.86;100.00
1207;BME280;593;53.184;8.216;2023-12-04T02:26:23;101106.34;;;2.85;100.00
1207;BME280;593;53.184;8.216;2023-12-04T02:28:55;101104.09;;;2.82;100.00
1207;BME280;593;53.184;8.216;2023-12-04T02:31:24;101096.47;;;2.79;100.00
1207;BME280;593;53.184;8.216;2023-12-04T02:33:52;101096.25;;;2.81;100.00
1207;BME280;593;53.184;8.216;2023-12-04T02:36:25;101091.50;;;2.83;100.00
1207;BME280;593;53.184;8.216;2023-12-04T02:38:53;101083.19;;;2.84;100.00
1207;BME280;593;53.184;8.216;2023-12-04T02:41:19;101085.06;;;2.84;100.00
1207;BME280;593;53.184;8.216;2023-12-04T02:43:44;101072.84;;;2.88;100.00
1207;BME280;593;53.184;8.216;2023-12-04T02:46:10;101069.09;;;2.89;100.00
1207;BME280;593;53.184;8.216;2023-12-04T02:48:35;101058.22;;;2.84;100.00
1207;BME280;593;53.184;8.216;2023-12-04T02:51:02;101064.00;;;2.81;100.00
1207;BME280;593;53.184;8.216;2023-12-04T02:53:27;101069.53;;;2.86;100.00
1207;BME280;593;53.184;8.216;2023-12-04T02:55:52;101067.47;;;2.88;100.00
1207;BME280;593;53.184;8.216;2023-12-04T02:58:18;101065.00;;;2.86;100.00
1207;BME280;593;53.184;8.216;2023-12-04T03:00:43;101056.94;;;2.86;100.00
1207;BME280;593;53.184;8.216;2023-12-04T03:03:09;101059.84;;;2.85;100.00
1207;BME280;593;53.184;8.216;2023-12-04T03:05:34;101056.94;;;2.86;100.00
1207;BME280;593;53.184;8.216;2023-12-04T03:08:00;101047.91;;;2.81;100.00
1207;BME280;593;53.184;8.216;2023-12-04T03:10:25;101048.53;;;2.83;100.00
1207;BME280;593;53.184;8.216;2023-12-04T03:12:51;101042.91;;;2.84;100.00
1207;BME280;593;53.184;8.216;2023-12-04T03:15:16;101038.97;;;2.87;100.00
1207;BME280;593;53.184;8.216;2023-12-04T03:17:41;101051.81;;;2.85;100.00
1207;BME280;593;53.184;8.216;2023-12-04T03:20:07;101040.81;;;2.86;100.00
1207;BME280;593;53.184;8.216;2023-12-04T03:22:36;101031.72;;;2.87;100.00
1207;BME280;593;53.184;8.216;2023-12-04T03:25:02;101034.19;;;2.89;100.00
1207;BME280;593;53.184;8.216;2023-12-04T03:27:27;101035.59;;;2.91;100.00
1207;BME280;593;53.184;8.216;2023-12-04T03:29:52;101033.00;;;2.85;100.00
1207;BME280;593;53.184;8.216;2023-12-04T03:32:18;101024.50;;;2.88;100.00
1207;BME280;593;53.184;8.216;2023-12-04T03:34:43;101023.44;;;2.89;100.00
1207;BME280;593;53.184;8.216;2023-12-04T03:37:09;101031.72;;;2.87;100.00
1207;BME280;593;53.184;8.216;2023-12-04T03:39:34;101026.97;;;2.89;100.00
1207;BME280;593;53.184;8.216;2023-12-04T03:41:59;101015.63;;;2.87;100.00
1207;BME280;593;53.184;8.216;2023-12-04T03:44:25;101007.31;;;2.89;100.00
1207;BME280;593;53.184;8.216;2023-12-04T03:46:50;101017.03;;;2.90;100.00
1207;BME280;593;53.184;8.216;2023-12-04T03:49:17;101013.28;;;2.91;100.00
1207;BME280;593;53.184;8.216;2023-12-04T03:51:42;101008.53;;;2.93;100.00
1207;BME280;593;53.184;8.216;2023-12-04T03:54:08;101007.91;;;2.91;100.00
1207;BME280;593;53.184;8.216;2023-12-04T03:56:33;101000.09;;;2.89;100.00
1207;BME280;593;53.184;8.216;2023-12-04T03:58:58;100999.84;;;2.91;100.00
1207;BME280;593;53.184;8.216;2023-12-04T04:01:27;100989.34;;;2.89;100.00
1207;BME280;593;53.184;8.216;2023-12-04T04:03:52;100984.81;;;2.90;100.00
1207;BME280;593;53.184;8.216;2023-12-04T04:06:17;100979.06;;;2.86;100.00
1207;BME280;593;53.184;8.216;2023-12-04T04:08:43;100984.81;;;2.90;100.00
1207;BME280;593;53.184;8.216;2023-12-04T04:11:08;100977.28;;;2.80;100.00
1207;BME280;593;53.184;8.216;2023-12-04T04:13:34;100984.22;;;2.88;100.00
1207;BME280;593;53.184;8.216;2023-12-04T04:15:59;100977.78;;;2.89;100.00
1207;BME280;593;53.184;8.216;2023-12-04T04:18:24;100967.03;;;2.89;100.00
1207;BME280;593;53.184;8.216;2023-12-04T04:20:50;100977.19;;;2.87;100.00
1207;BME280;593;53.184;8.216;2023-12-04T04:23:15;100973.47;;;2.88;100.00
1207;BME280;593;53.184;8.216;2023-12-04T04:25:41;100969.97;;;2.87;100.00
1207;BME280;593;53.184;8.216;2023-12-04T04:28:06;100957.13;;;2.89;100.00
1207;BME280;593;53.184;8.216;2023-12-04T04:30:31;100958.78;;;2.90;100.00
1207;BME280;593;53.184;8.216;2023-12-04T04:32:57;100960.19;;;2.93;100.00
1207;BME280;593;53.184;8.216;2023-12-04T04:35:22;100959.81;;;2.89;100.00
1207;BME280;593;53.184;8.216;2023-12-04T04:37:47;100961.22;;;2.92;100.00
1207;BME280;593;53.184;8.216;2023-12-04T04:40:13;100955.63;;;2.93;100.00
1207;BME280;593;53.184;8.216;2023-12-04T04:42:38;100951.75;;;2.89;100.00
1207;BME280;593;53.184;8.216;2023-12-04T04:45:04;100950.47;;;2.92;100.00
1207;BME280;593;53.184;8.216;2023-12-04T04:47:29;100947.78;;;2.92;100.00
1207;BME280;593;53.184;8.216;2023-12-04T04:49:58;100939.72;;;2.92;100.00
1207;BME280;593;53.184;8.216;2023-12-04T04:52:23;100947.78;;;2.92;100.00
1207;BME280;593;53.184;8.216;2023-12-04T04:54:49;100934.38;;;2.92;100.00
1207;BME280;593;53.184;8.216;2023-12-04T04:57:14;100935.19;;;2.92;100.00
1207;BME280;593;53.184;8.216;2023-12-04T04:59:39;100932.13;;;2.89;100.00
1207;BME280;593;53.184;8.216;2023-12-04T05:02:05;100926.06;;;2.93;100.00
1207;BME280;593;53.184;8.216;2023-12-04T05:04:30;100925.88;;;2.95;100.00
1207;BME280;593;53.184;8.216;2023-12-04T05:06:56;100929.13;;;2.97;100.00
1207;BME280;593;53.184;8.216;2023-12-04T05:09:21;100919.44;;;2.96;100.00
1207;BME280;593;53.184;8.216;2023-12-04T05:11:46;100928.53;;;2.95;100.00
1207;BME280;593;53.184;8.216;2023-12-04T05:14:12;100922.94;;;2.96;100.00
1207;BME280;593;53.184;8.216;2023-12-04T05:16:37;100929.13;;;2.97;100.00
1207;BME280;593;53.184;8.216;2023-12-04T05:19:03;100924.59;;;2.97;100.00
1207;BME280;593;53.184;8.216;2023-12-04T05:21:28;100929.72;;;2.99;100.00
1207;BME280;593;53.184;8.216;2023-12-04T05:23:53;100903.66;;;2.88;100.00
1207;BME280;593;53.184;8.216;2023-12-04T05:26:19;100921.47;;;3.00;100.00
1207;BME280;593;53.184;8.216;2023-12-04T05:28:44;100923.91;;;3.02;100.00
1207;BME280;593;53.184;8.216;2023-12-04T05:31:11;100908.81;;;3.01;100.00
1207;BME280;593;53.184;8.216;2023-12-04T05:33:36;100908.63;;;3.02;100.00
1207;BME280;593;53.184;8.216;2023-12-04T05:36:02;100903.25;;;3.02;100.00
1207;BME280;593;53.184;8.216;2023-12-04T05:38:27;100889.66;;;2.97;100.00
1207;BME280;593;53.184;8.216;2023-12-04T05:40:53;100892.69;;;3.01;100.00
1207;BME280;593;53.184;8.216;2023-12-04T05:43:19;100872.34;;;2.93;100.00
1207;BME280;593;53.184;8.216;2023-12-04T05:45:45;100886.06;;;3.03;100.00
1207;BME280;593;53.184;8.216;2023-12-04T05:48:10;100887.72;;;3.04;100.00
1207;BME280;593;53.184;8.216;2023-12-04T05:50:36;100884.19;;;3.04;100.00
1207;BME280;593;53.184;8.216;2023-12-04T05:53:01;100884.66;;;3.01;100.00
1207;BME280;593;53.184;8.216;2023-12-04T05:55:26;100884.28;;;2.97;100.00
1207;BME280;593;53.184;8.216;2023-12-04T05:57:52;100884.06;;;2.99;100.00
1207;BME280;593;53.184;8.216;2023-12-04T06:00:17;100881.97;;;3.01;100.00
1207;BME280;593;53.184;8.216;2023-12-04T06:02:43;100876.38;;;3.02;100.00
1207;BME280;593;53.184;8.216;2023-12-04T06:05:09;100871.22;;;3.01;100.00
1207;BME280;593;53.184;8.216;2023-12-04T06:07:35;100884.00;;;3.05;100.00
1207;BME280;593;53.184;8.216;2023-12-04T06:10:01;100878.81;;;3.04;100.00
1207;BME280;593;53.184;8.216;2023-12-04T06:12:26;100881.06;;;3.07;100.00
1207;BME280;593;53.184;8.216;2023-12-04T06:14:51;100875.44;;;3.08;100.00
1207;BME280;593;53.184;8.216;2023-12-04T06:17:17;100870.75;;;3.04;100.00
1207;BME280;593;53.184;8.216;2023-12-04T06:19:48;100867.63;;;3.07;100.00
1207;BME280;593;53.184;8.216;2023-12-04T06:22:14;100869.88;;;3.10;100.00
1207;BME280;593;53.184;8.216;2023-12-04T06:24:40;100868.00;;;3.10;100.00
1207;BME280;593;53.184;8.216;2023-12-04T06:27:06;100868.59;;;3.12;100.00
1207;BME280;593;53.184;8.216;2023-12-04T06:29:34;100867.38;;;3.08;100.00
1207;BME280;593;53.184;8.216;2023-12-04T06:32:01;100864.69;;;3.08;100.00
1207;BME280;593;53.184;8.216;2023-12-04T06:34:26;100864.84;;;3.13;100.00
1207;BME280;593;53.184;8.216;2023-12-04T06:36:52;100863.81;;;3.14;100.00
1207;BME280;593;53.184;8.216;2023-12-04T06:39:18;100870.81;;;3.15;100.00
1207;BME280;593;53.184;8.216;2023-12-04T06:41:44;100866.72;;;3.13;100.00
1207;BME280;593;53.184;8.216;2023-12-04T06:44:12;100864.25;;;3.11;100.00
1207;BME280;593;53.184;8.216;2023-12-04T06:46:37;100865.91;;;3.12;100.00
1207;BME280;593;53.184;8.216;2023-12-04T06:49:05;100861.81;;;3.10;100.00
1207;BME280;593;53.184;8.216;2023-12-04T06:51:31;100861.56;;;3.11;100.00
1207;BME280;593;53.184;8.216;2023-12-04T06:53:57;100853.75;;;3.10;100.00
1207;BME280;593;53.184;8.216;2023-12-04T06:56:23;100855.97;;;3.13;100.00
1207;BME280;593;53.184;8.216;2023-12-04T06:58:48;100852.22;;;3.14;100.00
1207;BME280;593;53.184;8.216;2023-12-04T07:01:13;100858.44;;;3.14;100.00
1207;BME280;593;53.184;8.216;2023-12-04T07:03:39;100850.13;;;3.16;100.00
1207;BME280;593;53.184;8.216;2023-12-04T07:06:04;100858.56;;;3.19;100.00
1207;BME280;593;53.184;8.216;2023-12-04T07:08:30;100859.25;;;3.15;100.00
1207;BME280;593;53.184;8.216;2023-12-04T07:10:55;100860.88;;;3.16;100.00
1207;BME280;593;53.184;8.216;2023-12-04T07:13:21;100855.97;;;3.13;100.00
1207;BME280;593;53.184;8.216;2023-12-04T07:15:46;100859.25;;;3.15;100.00
1207;BME280;593;53.184;8.216;2023-12-04T07:18:12;100862.97;;;3.14;100.00
1207;BME280;593;53.184;8.216;2023-12-04T07:20:37;100854.31;;;3.12;100.00
1207;BME280;593;53.184;8.216;2023-12-04T07:23:02;100845.31;;;3.06;100.00
1207;BME280;593;53.184;8.216;2023-12-04T07:25:28;100854.69;;;3.15;100.00
1207;BME280;593;53.184;8.216;2023-12-04T07:27:53;100847.31;;;3.11;100.00
1207;BME280;593;53.184;8.216;2023-12-04T07:30:19;100843.22;;;3.08;100.00
1207;BME280;593;53.184;8.216;2023-12-04T07:32:46;100848.94;;;3.12;100.00
1207;BME280;593;53.184;8.216;2023-12-04T07:35:11;100842.53;;;3.13;100.00
1207;BME280;593;53.184;8.216;2023-12-04T07:37:37;100852.00;;;3.15;100.00
1207;BME280;593;53.184;8.216;2023-12-04T07:40:03;100850.94;;;3.16;100.00
1207;BME280;593;53.184;8.216;2023-12-04T07:42:31;100851.78;;;3.17;100.00
1207;BME280;593;53.184;8.216;2023-12-04T07:44:56;100848.25;;;3.16;100.00
1207;BME280;593;53.184;8.216;2023-12-04T07:47:22;100858.81;;;3.18;100.00
1207;BME280;593;53.184;8.216;2023-12-04T07:49:48;100854.84;;;3.20;100.00
1207;BME280;593;53.184;8.216;2023-12-04T07:52:14;100854.59;;;3.22;100.00
1207;BME280;593;53.184;8.216;2023-12-04T07:54:39;100855.19;;;3.24;100.00
1207;BME280;593;53.184;8.216;2023-12-04T07:57:07;100853.56;;;3.23;100.00
1207;BME280;593;53.184;8.216;2023-12-04T07:59:33;100852.72;;;3.22;100.00
1207;BME280;593;53.184;8.216;2023-12-04T08:01:59;100842.19;;;3.21;100.00
1207;BME280;593;53.184;8.216;2023-12-04T08:04:24;100854.13;;;3.25;100.00
1207;BME280;593;53.184;8.216;2023-12-04T08:06:50;100847.69;;;3.26;100.00
1207;BME280;593;53.184;8.216;2023-12-04T08:09:15;100838.59;;;3.27;100.00
1207;BME280;593;53.184;8.216;2023-12-04T08:11:42;100829.72;;;3.27;100.00
1207;BME280;593;53.184;8.216;2023-12-04T08:14:07;100828.44;;;3.29;100.00
1207;BME280;593;53.184;8.216;2023-12-04T08:16:35;100819.34;;;3.30;100.00
1207;BME280;593;53.184;8.216;2023-12-04T08:19:01;100811.03;;;3.32;100.00
1207;BME280;593;53.184;8.216;2023-12-04T08:21:26;100810.00;;;3.33;100.00
1207;BME280;593;53.184;8.216;2023-12-04T08:23:52;100802.97;;;3.32;100.00
1207;BME280;593;53.184;8.216;2023-12-04T08:26:25;100790.34;;;3.32;100.00
1207;BME280;593;53.184;8.216;2023-12-04T08:28:53;100789.97;;;3.29;100.00
1207;BME280;593;53.184;8.216;2023-12-04T08:31:19;100781.72;;;3.30;100.00
1207;BME280;593;53.184;8.216;2023-12-04T08:33:44;100785.81;;;3.33;100.00
1207;BME280;593;53.184;8.216;2023-12-04T08:36:11;100784.72;;;3.34;100.00
1207;BME280;593;53.184;8.216;2023-12-04T08:38:36;100782.03;;;3.34;100.00
1207;BME280;593;53.184;8.216;2023-12-04T08:41:03;100783.69;;;3.35;100.00
1207;BME280;593;53.184;8.216;2023-12-04T08:43:29;100782.88;;;3.34;100.00
1207;BME280;593;53.184;8.216;2023-12-04T08:45:55;100771.66;;;3.37;100.00
1207;BME280;593;53.184;8.216;2023-12-04T08:48:20;100780.53;;;3.38;100.00
1207;BME280;593;53.184;8.216;2023-12-04T08:50:46;100762.19;;;3.35;100.00
1207;BME280;593;53.184;8.216;2023-12-04T08:53:11;100760.66;;;3.39;100.00
1207;BME280;593;53.184;8.216;2023-12-04T08:55:37;100765.25;;;3.38;100.00
1207;BME280;593;53.184;8.216;2023-12-04T08:58:02;100765.81;;;3.40;100.00
1207;BME280;593;53.184;8.216;2023-12-04T09:00:28;100769.56;;;3.39;100.00
1207;BME280;593;53.184;8.216;2023-12-04T09:02:53;100761.28;;;3.41;100.00
1207;BME280;593;53.184;8.216;2023-12-04T09:05:19;100765.38;;;3.43;100.00
1207;BME280;593;53.184;8.216;2023-12-04T09:07:44;100766.41;;;3.42;100.00
1207;BME280;593;53.184;8.216;2023-12-04T09:10:10;100774.47;;;3.42;100.00
1207;BME280;593;53.184;8.216;2023-12-04T09:12:35;100773.66;;;3.42;100.00
1207;BME280;593;53.184;8.216;2023-12-04T09:15:04;100773.44;;;3.43;100.00
1207;BME280;593;53.184;8.216;2023-12-04T09:17:29;100774.47;;;3.42;100.00
1207;BME280;593;53.184;8.216;2023-12-04T09:19:55;100775.63;;;3.46;100.00
1207;BME280;593;53.184;8.216;2023-12-04T09:22:20;100768.63;;;3.45;100.00
1207;BME280;593;53.184;8.216;2023-12-04T09:24:46;100768.84;;;3.44;100.00
1207;BME280;593;53.184;8.216;2023-12-04T09:27:11;100770.75;;;3.43;100.00
1207;BME280;593;53.184;8.216;2023-12-04T09:29:40;100768.63;;;3.45;100.00
1207;BME280;593;53.184;8.216;2023-12-04T09:32:07;100758.22;;;3.37;100.00
1207;BME280;593;53.184;8.216;2023-12-04T09:34:32;100765.94;;;3.45;100.00
1207;BME280;593;53.184;8.216;2023-12-04T09:36:58;100765.38;;;3.43;100.00
1207;BME280;593;53.184;8.216;2023-12-04T09:39:23;100765.13;;;3.45;100.00
1207;BME280;593;53.184;8.216;2023-12-04T09:41:49;100770.03;;;3.48;100.00
1207;BME280;593;53.184;8.216;2023-12-04T09:44:16;100768.38;;;3.47;100.00
1207;BME280;593;53.184;8.216;2023-12-04T09:46:42;100763.00;;;3.47;100.00
1207;BME280;593;53.184;8.216;2023-12-04T09:49:08;100761.16;;;3.47;100.00
1207;BME280;593;53.184;8.216;2023-12-04T09:51:33;100765.69;;;3.47;100.00
1207;BME280;593;53.184;8.216;2023-12-04T09:54:02;100763.84;;;3.47;100.00
1207;BME280;593;53.184;8.216;2023-12-04T09:56:28;100765.25;;;3.50;100.00
1207;BME280;593;53.184;8.216;2023-12-04T09:58:58;100757.06;;;3.45;100.00
1207;BME280;593;53.184;8.216;2023-12-04T10:01:25;100759.28;;;3.48;100.00
1207;BME280;593;53.184;8.216;2023-12-04T10:03:50;100753.09;;;3.47;100.00
1207;BME280;593;53.184;8.216;2023-12-04T10:06:16;100749.56;;;3.47;100.00
1207;BME280;593;53.184;8.216;2023-12-04T10:08:44;100754.13;;;3.46;100.00
1207;BME280;593;53.184;8.216;2023-12-04T10:11:12;100751.44;;;3.46;100.00
1207;BME280;593;53.184;8.216;2023-12-04T10:13:40;100749.31;;;3.48;100.00
1207;BME280;593;53.184;8.216;2023-12-04T10:16:06;100757.38;;;3.48;100.00
1207;BME280;593;53.184;8.216;2023-12-04T10:18:31;100743.16;;;3.48;100.00
1207;BME280;593;53.184;8.216;2023-12-04T10:20:58;100730.16;;;3.45;100.00
1207;BME280;593;53.184;8.216;2023-12-04T10:23:40;100735.41;;;3.51;100.00
1207;BME280;593;53.184;8.216;2023-12-04T10:26:06;100735.19;;;3.53;100.00
1207;BME280;593;53.184;8.216;2023-12-04T10:28:33;100711.00;;;3.53;100.00
1207;BME280;593;53.184;8.216;2023-12-04T10:30:59;100723.38;;;3.54;100.00
1207;BME280;593;53.184;8.216;2023-12-04T10:33:25;100711.59;;;3.55;100.00
1207;BME280;593;53.184;8.216;2023-12-04T10:35:54;100704.22;;;3.50;100.00
1207;BME280;593;53.184;8.216;2023-12-04T10:38:20;100710.75;;;3.54;100.00
1207;BME280;593;53.184;8.216;2023-12-04T10:40:46;100704.34;;;3.55;100.00
1207;BME280;593;53.184;8.216;2023-12-04T10:43:23;100702.69;;;3.54;100.00
1207;BME280;593;53.184;8.216;2023-12-04T10:45:50;100690.91;;;3.55;100.00
1207;BME280;593;53.184;8.216;2023-12-04T10:48:17;100688.44;;;3.54;100.00
1207;BME280;593;53.184;8.216;2023-12-04T10:50:48;100691.13;;;3.54;100.00
1207;BME280;593;53.184;8.216;2023-12-04T10:53:15;100686.56;;;3.54;99.75
1207;BME280;593;53.184;8.216;2023-12-04T10:55:41;100669.28;;;3.50;99.26
1207;BME280;593;53.184;8.216;2023-12-04T10:58:09;100673.38;;;3.53;99.85
1207;BME280;593;53.184;8.216;2023-12-04T11:00:42;100674.16;;;3.53;99.81
1207;BME280;593;53.184;8.216;2023-12-04T11:03:13;100671.25;;;3.55;99.42
1207;BME280;593;53.184;8.216;2023-12-04T11:05:40;100667.16;;;3.52;99.59
1207;BME280;593;53.184;8.216;2023-12-04T11:08:09;100663.41;;;3.53;99.79
1207;BME280;593;53.184;8.216;2023-12-04T11:10:57;100661.78;;;3.52;99.97
1207;BME280;593;53.184;8.216;2023-12-04T11:13:27;100654.28;;;3.54;99.81
1207;BME280;593;53.184;8.216;2023-12-04T11:16:07;100646.81;;;3.56;99.89
1207;BME280;593;53.184;8.216;2023-12-04T11:18:36;100649.28;;;3.58;99.93
1207;BME280;593;53.184;8.216;2023-12-04T11:21:08;100650.56;;;3.55;99.96
1207;BME280;593;53.184;8.216;2023-12-04T11:23:34;100648.47;;;3.57;99.73
1207;BME280;593;53.184;8.216;2023-12-04T11:26:01;100649.28;;;3.58;99.49
1207;BME280;593;53.184;8.216;2023-12-04T11:28:29;100642.81;;;3.59;99.21
1207;BME280;593;53.184;8.216;2023-12-04T11:30:55;100646.34;;;3.59;99.71
1207;BME280;593;53.184;8.216;2023-12-04T11:33:21;100644.00;;;3.63;99.32
1207;BME280;593;53.184;8.216;2023-12-04T11:35:46;100635.84;;;3.58;99.37
1207;BME280;593;53.184;8.216;2023-12-04T11:38:14;100642.38;;;3.62;99.26
1207;BME280;593;53.184;8.216;2023-12-04T11:40:41;100627.53;;;3.59;99.52
1207;BME280;593;53.184;8.216;2023-12-04T11:43:37;100630.06;;;3.66;99.14
1207;BME280;593;53.184;8.216;2023-12-04T11:46:08;100634.66;;;3.65;98.45
1207;BME280;593;53.184;8.216;2023-12-04T11:48:36;100636.25;;;3.66;98.25
1207;BME280;593;53.184;8.216;2023-12-04T11:51:02;100618.75;;;3.64;98.16
1207;BME280;593;53.184;8.216;2023-12-04T11:53:30;100629.28;;;3.65;98.42
1207;BME280;593;53.184;8.216;2023-12-04T11:55:56;100624.69;;;3.66;98.33
1207;BME280;593;53.184;8.216;2023-12-04T11:58:24;100624.47;;;3.67;98.17
1207;BME280;593;53.184;8.216;2023-12-04T12:00:49;100619.91;;;3.68;98.34
1207;BME280;593;53.184;8.216;2023-12-04T12:03:17;100620.47;;;3.70;98.28
1207;BME280;593;53.184;8.216;2023-12-04T12:05:42;100612.63;;;3.68;98.58
1207;BME280;593;53.184;8.216;2023-12-04T12:08:09;100615.94;;;3.70;98.57
1207;BME280;593;53.184;8.216;2023-12-04T12:10:34;100594.53;;;3.64;98.32
1207;BME280;593;53.184;8.216;2023-12-04T12:13:00;100605.19;;;3.70;96.61
1207;BME280;593;53.184;8.216;2023-12-04T12:15:27;100601.88;;;3.68;95.40
1207;BME280;593;53.184;8.216;2023-12-04T12:17:53;100586.00;;;3.67;96.25
1207;BME280;593;53.184;8.216;2023-12-04T12:20:19;100590.56;;;3.66;96.06
1207;BME280;593;53.184;8.216;2023-12-04T12:22:47;100585.19;;;3.66;95.95
1207;BME280;593;53.184;8.216;2023-12-04T12:25:13;100585.75;;;3.68;96.34
1207;BME280;593;53.184;8.216;2023-12-04T12:27:39;100575.25;;;3.67;96.10
1207;BME280;593;53.184;8.216;2023-12-04T12:30:05;100578.97;;;3.66;96.15
1207;BME280;593;53.184;8.216;2023-12-04T12:32:32;100580.38;;;3.68;96.27
1207;BME280;593;53.184;8.216;2023-12-04T12:34:57;100566.81;;;3.63;96.57
1207;BME280;593;53.184;8.216;2023-12-04T12:37:23;100571.25;;;3.69;95.82
1207;BME280;593;53.184;8.216;2023-12-04T12:39:49;100569.13;;;3.71;95.81
1207;BME280;593;53.184;8.216;2023-12-04T12:42:23;100565.63;;;3.71;96.40
1207;BME280;593;53.184;8.216;2023-12-04T12:44:52;100558.47;;;3.76;96.60
1207;BME280;593;53.184;8.216;2023-12-04T12:47:18;100567.72;;;3.80;96.58
1207;BME280;593;53.184;8.216;2023-12-04T12:49:44;100565.59;;;3.82;96.96
1207;BME280;593;53.184;8.216;2023-12-04T12:52:10;100557.06;;;3.85;96.74
1207;BME280;593;53.184;8.216;2023-12-04T12:54:39;100541.47;;;3.87;96.40
1207;BME280;593;53.184;8.216;2023-12-04T12:57:05;100537.97;;;3.87;96.56
1207;BME280;593;53.184;8.216;2023-12-04T12:59:32;100546.59;;;3.89;96.31
1207;BME280;593;53.184;8.216;2023-12-04T13:01:58;100542.63;;;3.92;95.71
1207;BME280;593;53.184;8.216;2023-12-04T13:04:25;100542.63;;;3.92;95.45
1207;BME280;593;53.184;8.216;2023-12-04T13:06:51;100528.69;;;3.95;95.52
1207;BME280;593;53.184;8.216;2023-12-04T13:09:16;100530.34;;;3.96;94.60
1207;BME280;593;53.184;8.216;2023-12-04T13:11:47;100536.50;;;3.96;94.15
1207;BME280;593;53.184;8.216;2023-12-04T13:14:13;100519.22;;;3.92;94.04
1207;BME280;593;53.184;8.216;2023-12-04T13:16:39;100527.03;;;3.94;93.25
1207;BME280;593;53.184;8.216;2023-12-04T13:19:05;100524.69;;;3.97;93.29